Time;durP1;ratioP1;P1;durP2;ratioP2;P2;SDS_P1;SDS_P2;PMS_P1;PMS_P2;Temp;Humidity;BMP_temperature;BMP_pressure;BME280_temperature;BME280_humidity;BME280_pressure;Samples;Min_cycle;Max_cycle;Signal;HPM_P1;HPM_P2
2022/05/01 00:01:44;;;;;;;5.53;2.45;;;;;;;;;;5052210;28;20124;-73
2022/05/01 00:04:10;;;;;;;5.00;3.00;;;;;;;;;;5052434;28;20550;-73
2022/05/01 00:06:36;;;;;;;8.23;3.35;;;;;;;;;;5052112;28;20496;-72
2022/05/01 00:09:05;;;;;;;7.35;3.08;;;;;;;;;;5052400;28;20098;-72
2022/05/01 00:11:32;;;;;;;4.25;3.08;;;;;;;;;;5052080;28;20045;-72
2022/05/01 00:13:58;;;;;;;6.07;3.15;;;;;;;;;;5035416;28;20041;-72
2022/05/01 00:16:24;;;;;;;6.45;2.88;;;;;;;;;;5035246;28;20052;-73
2022/05/01 00:18:50;;;;;;;9.43;4.82;;;;;;;;;;5052046;28;20043;-72
2022/05/01 00:21:16;;;;;;;7.85;3.05;;;;;;;;;;5053153;28;20076;-72
2022/05/01 00:23:42;;;;;;;5.03;2.95;;;;;;;;;;5051815;28;20040;-73
2022/05/01 00:26:09;;;;;;;7.50;3.17;;;;;;;;;;5051909;28;20514;-73
2022/05/01 00:28:39;;;;;;;5.38;3.25;;;;;;;;;;5035196;28;20090;-72
2022/05/01 00:31:06;;;;;;;5.93;3.13;;;;;;;;;;5051763;28;20049;-73
2022/05/01 00:36:26;;;;;;;5.57;3.40;;;;;;;;;;5051619;28;20048;-72
2022/05/01 00:38:56;;;;;;;6.55;3.78;;;7.70;99.90;;;;;;5051717;28;20128;-72
2022/05/01 00:41:23;;;;;;;5.65;3.35;;;8.00;99.90;;;;;;5051629;28;20098;-72
2022/05/01 00:44:00;;;;;;;6.55;3.22;;;7.90;99.90;;;;;;5035043;28;20266;-72
2022/05/01 00:46:27;;;;;;;6.43;3.65;;;7.70;99.90;;;;;;5051862;28;20048;-72
2022/05/01 00:48:53;;;;;;;7.80;4.30;;;8.10;99.90;;;;;;5018788;28;20037;-73
2022/05/01 00:51:20;;;;;;;5.85;4.30;;;7.90;99.90;;;;;;5035067;28;20060;-72
2022/05/01 00:53:51;;;;;;;4.88;3.20;;;7.80;99.90;;;;;;5051822;28;20417;-73
2022/05/01 00:56:18;;;;;;;4.60;3.50;;;7.90;99.90;;;;;;5051493;28;20045;-73
2022/05/01 00:58:46;;;;;;;5.65;3.15;;;8.00;99.90;;;;;;5051368;28;20090;-73
2022/05/01 01:01:12;;;;;;;7.70;3.00;;;7.80;99.90;;;;;;5051460;28;20515;-73
2022/05/01 01:03:38;;;;;;;6.70;3.17;;;8.00;99.90;;;;;;5051632;28;20056;-73
2022/05/01 01:06:04;;;;;;;5.57;2.78;;;7.50;99.90;;;;;;5051376;28;20048;-73
2022/05/01 01:08:29;;;;;;;6.35;2.28;;;7.50;99.90;;;;;;5034696;28;20048;-73
2022/05/01 01:10:55;;;;;;;7.13;3.67;;;7.90;99.90;;;;;;5034806;28;20041;-73
2022/05/01 01:13:28;;;;;;;7.57;3.45;;;7.50;99.90;;;;;;5018502;28;20416;-73
2022/05/01 01:15:55;;;;;;;3.83;2.65;;;7.60;99.90;;;;;;5051243;28;20056;-74
2022/05/01 01:18:25;;;;;;;6.75;3.10;;;7.50;99.90;;;;;;5051279;28;20045;-73
2022/05/01 01:20:52;;;;;;;5.32;3.00;;;7.80;99.90;;;;;;5018390;28;20037;-73
2022/05/01 01:23:18;;;;;;;6.55;3.67;;;;;;;;;;5051206;28;20079;-73
2022/05/01 01:25:44;;;;;;;8.10;3.13;;;;;;;;;;5051117;28;20044;-73
2022/05/01 01:28:10;;;;;;;7.45;3.22;;;7.30;99.90;;;;;;5034972;28;20033;-73
2022/05/01 01:33:29;;;;;;;5.32;3.15;;;7.30;99.90;;;;;;5029867;28;20079;-73
2022/05/01 01:35:58;;;;;;;5.57;3.10;;;7.10;99.90;;;;;;5038855;28;20501;-73
2022/05/01 01:38:25;;;;;;;6.40;3.75;;;7.30;99.90;;;;;;5055303;28;20071;-72
2022/05/01 01:40:56;;;;;;;7.32;3.90;;;7.20;99.90;;;;;;5038323;28;20512;-72
2022/05/01 01:43:29;;;;;;;7.43;3.72;;;7.00;99.90;;;;;;5055045;28;20048;-72
2022/05/01 01:45:56;;;;;;;4.45;2.85;;;7.20;99.90;;;;;;5055032;28;20491;-72
2022/05/01 01:48:23;;;;;;;4.55;3.10;;;7.30;99.90;;;;;;5038167;28;20043;-72
2022/05/01 01:50:57;;;;;;;5.70;3.33;;;7.20;99.90;;;;;;5054992;28;20041;-72
2022/05/01 01:53:23;;;;;;;4.85;3.35;;;7.00;99.90;;;;;;5054591;28;20098;-72
2022/05/01 01:55:48;;;;;;;5.28;3.25;;;8.00;99.90;;;;;;5038030;28;20033;-72
2022/05/01 01:58:14;;;;;;;4.85;2.95;;;7.10;99.90;;;;;;5054862;28;20377;-72
2022/05/01 02:00:40;;;;;;;5.72;3.25;;;7.00;99.90;;;;;;5054734;28;20033;-72
2022/05/01 02:03:06;;;;;;;6.32;3.00;;;7.00;99.90;;;;;;5054799;28;20037;-73
2022/05/01 02:05:35;;;;;;;6.68;3.55;;;6.90;99.90;;;;;;5054511;28;20054;-73
2022/05/01 02:08:01;;;;;;;4.25;3.35;;;6.90;99.90;;;;;;5054719;28;20489;-73
2022/05/01 02:10:27;;;;;;;5.68;3.25;;;7.00;99.90;;;;;;5054786;28;20135;-73
2022/05/01 02:12:54;;;;;;;11.88;3.78;;;7.10;99.90;;;;;;5054284;28;20080;-73
2022/05/01 02:15:20;;;;;;;5.97;2.90;;;7.10;99.90;;;;;;5054157;28;20170;-72
2022/05/01 02:17:49;;;;;;;7.78;3.53;;;7.40;99.90;;;;;;5037706;28;20037;-72
2022/05/01 02:20:15;;;;;;;6.07;3.42;;;7.00;99.90;;;;;;5054378;28;20079;-72
2022/05/01 02:22:42;;;;;;;12.07;4.68;;;6.70;99.90;;;;;;5054097;28;20130;-73
2022/05/01 02:25:09;;;;;;;6.95;3.95;;;7.20;99.90;;;;;;5054206;28;20049;-72
2022/05/01 02:27:35;;;;;;;5.45;3.33;;;6.90;99.90;;;;;;5037439;28;20056;-73
2022/05/01 02:30:01;;;;;;;5.32;2.95;;;6.90;99.90;;;;;;5037766;28;20510;-72
2022/05/01 02:32:27;;;;;;;8.52;3.60;;;6.90;99.90;;;;;;5054203;28;20103;-72
2022/05/01 02:34:53;;;;;;;7.47;3.55;;;7.30;99.90;;;;;;5037252;28;20047;-72
2022/05/01 02:37:18;;;;;;;4.93;2.58;;;7.50;99.90;;;;;;5037228;28;20546;-72
2022/05/01 02:39:44;;;;;;;4.22;2.60;;;6.60;99.90;;;;;;5054019;28;20072;-72
2022/05/01 02:42:10;;;;;;;7.70;3.83;;;7.00;99.90;;;;;;5037315;28;20041;-73
2022/05/01 02:44:35;;;;;;;7.18;3.42;;;6.70;99.90;;;;;;5052643;28;20040;-73
2022/05/01 02:47:01;;;;;;;5.30;3.03;;;7.30;99.90;;;;;;5053707;28;20056;-73
2022/05/01 02:49:27;;;;;;;3.67;2.35;;;6.40;99.90;;;;;;5037468;28;20530;-73
2022/05/01 02:51:53;;;;;;;4.97;3.47;;;6.90;99.90;;;;;;5037184;28;20056;-73
2022/05/01 02:54:21;;;;;;;6.15;3.55;;;6.70;99.90;;;;;;5037015;28;20484;-73
2022/05/01 02:56:49;;;;;;;5.80;3.00;;;6.60;99.90;;;;;;5053784;28;20084;-73
2022/05/01 02:59:18;;;;;;;8.35;2.85;;;7.20;99.90;;;;;;5053557;28;20037;-73
2022/05/01 03:01:44;;;;;;;4.68;3.20;;;6.80;99.90;;;;;;5053403;28;20045;-73
2022/05/01 03:04:10;;;;;;;6.32;3.17;;;7.00;99.90;;;;;;5036823;28;20474;-73
2022/05/01 03:06:36;;;;;;;6.43;4.28;;;7.00;99.90;;;;;;5020254;28;20045;-73
2022/05/01 03:09:03;;;;;;;7.13;2.80;;;6.80;99.90;;;;;;5036781;28;20051;-74
2022/05/01 03:11:29;;;;;;;6.22;3.05;;;6.50;99.90;;;;;;5036645;28;20048;-72
2022/05/01 03:13:55;;;;;;;4.85;2.42;;;6.80;99.90;;;;;;5053373;28;20037;-73
2022/05/01 03:16:21;;;;;;;10.90;3.47;;;6.50;99.90;;;;;;5036336;28;20056;-73
2022/05/01 03:24:18;;;;;;;4.57;3.05;;;6.50;99.90;;;;;;5052944;28;20045;-73
2022/05/01 03:26:44;;;;;;;4.70;2.55;;;6.10;99.90;;;;;;5053150;28;20045;-73
2022/05/01 03:29:14;;;;;;;4.85;2.60;;;6.10;99.90;;;;;;5053108;28;20071;-73
2022/05/01 03:31:40;;;;;;;8.00;3.70;;;5.90;99.90;;;;;;5052816;28;20452;-73
2022/05/01 03:34:06;;;;;;;3.75;2.20;;;5.90;99.90;;;;;;5036209;28;20044;-73
2022/05/01 03:36:32;;;;;;;6.63;3.20;;;5.90;99.90;;;;;;5053053;28;20083;-73
2022/05/01 03:38:59;;;;;;;4.70;2.97;;;5.80;99.90;;;;;;5036370;28;20076;-73
2022/05/01 03:41:26;;;;;;;4.85;2.35;;;5.80;99.90;;;;;;5036099;28;20048;-73
2022/05/01 03:43:52;;;;;;;3.67;2.08;;;6.00;99.90;;;;;;5052606;28;20083;-73
2022/05/01 03:46:20;;;;;;;4.00;2.33;;;5.90;99.90;;;;;;5052769;28;20072;-74
2022/05/01 03:48:46;;;;;;;7.82;2.72;;;6.20;99.90;;;;;;5052815;28;20044;-73
2022/05/01 03:51:12;;;;;;;9.02;3.15;;;6.30;99.90;;;;;;5052756;28;20057;-72
2022/05/01 03:53:38;;;;;;;2.63;1.75;;;5.90;99.90;;;;;;5035734;28;20076;-72
2022/05/01 03:56:05;;;;;;;3.20;2.42;;;6.00;99.90;;;;;;5052265;28;20083;-72
2022/05/01 03:58:31;;;;;;;3.85;2.17;;;5.70;99.90;;;;;;5052612;28;20037;-72
2022/05/01 04:01:00;;;;;;;3.97;2.50;;;5.50;99.90;;;;;;5036160;28;20562;-72
2022/05/01 04:03:26;;;;;;;7.50;2.53;;;5.70;99.90;;;;;;5019191;28;20139;-72
2022/05/01 04:05:52;;;;;;;4.63;2.42;;;5.60;99.90;;;;;;5052427;28;20396;-72
2022/05/01 04:08:18;;;;;;;4.90;3.42;;;5.70;99.90;;;;;;5052432;28;20484;-73
2022/05/01 04:10:45;;;;;;;4.78;2.13;;;5.80;99.90;;;;;;5052005;28;20064;-72
2022/05/01 04:13:13;;;;;;;6.13;2.85;;;5.70;99.90;;;;;;5052065;28;20191;-73
2022/05/01 04:15:39;;;;;;;3.83;2.58;;;5.90;99.90;;;;;;5051779;28;20079;-73
2022/05/01 04:18:05;;;;;;;6.10;2.63;;;6.10;99.90;;;;;;5035475;28;20048;-73
2022/05/01 04:20:37;;;;;;;7.93;3.38;;;5.60;99.90;;;;;;5051825;28;20036;-73
2022/05/01 04:23:04;;;;;;;4.35;2.05;;;5.50;99.90;;;;;;5051996;28;20048;-72
2022/05/01 04:25:30;;;;;;;7.43;2.67;;;5.40;99.90;;;;;;5051927;28;20124;-73
2022/05/01 04:27:59;;;;;;;5.65;2.92;;;5.30;99.90;;;;;;5035632;28;20047;-72
2022/05/01 04:30:29;;;;;;;3.50;2.17;;;5.30;99.90;;;;;;5019053;28;20456;-72
2022/05/01 04:33:07;;;;;;;7.80;2.95;;;5.30;99.90;;;;;;5035399;28;20045;-72
2022/05/01 04:35:37;;;;;;;7.50;3.22;;;5.30;99.90;;;;;;5051710;28;20451;-72
2022/05/01 04:38:05;;;;;;;5.05;2.65;;;5.40;99.90;;;;;;5051748;28;20068;-72
2022/05/01 04:40:36;;;;;;;4.85;3.28;;;5.30;99.90;;;;;;5051887;28;20484;-72
2022/05/01 04:43:19;;;;;;;7.32;3.33;;;5.40;99.90;;;;;;5051682;28;20098;-72
2022/05/01 04:45:48;;;;;;;6.68;2.65;;;5.40;99.90;;;;;;5034975;28;20102;-73
2022/05/01 04:48:14;;;;;;;7.47;3.78;;;5.40;99.90;;;;;;5051547;28;20045;-72
2022/05/01 04:50:41;;;;;;;5.18;2.80;;;5.20;99.90;;;;;;5051843;28;20040;-72
2022/05/01 04:53:12;;;;;;;6.57;3.15;;;5.40;99.90;;;;;;5051524;28;20043;-72
2022/05/01 04:55:40;;;;;;;6.97;3.85;;;5.40;99.90;;;;;;5034839;28;20123;-73
2022/05/01 04:58:06;;;;;;;5.82;2.45;;;5.40;99.90;;;;;;5051455;28;20049;-73
2022/05/01 05:00:33;;;;;;;3.58;2.22;;;5.40;99.90;;;;;;5051437;28;20045;-72
2022/05/01 05:02:59;;;;;;;5.10;2.97;;;5.50;99.90;;;;;;5051458;28;20086;-72
2022/05/01 05:05:27;;;;;;;4.82;2.97;;;5.60;99.90;;;;;;5051649;28;20565;-72
2022/05/01 05:07:54;;;;;;;5.50;3.03;;;5.70;99.90;;;;;;5051846;28;20075;-73
2022/05/01 05:10:20;;;;;;;5.03;2.97;;;5.40;99.90;;;;;;5055496;28;20041;-73
2022/05/01 05:12:48;;;;;;;6.72;2.45;;;5.60;99.90;;;;;;5055382;28;20428;-72
2022/05/01 05:15:16;;;;;;;5.18;3.13;;;5.70;99.90;;;;;;5055211;28;20053;-72
2022/05/01 05:17:43;;;;;;;7.00;3.60;;;5.90;99.90;;;;;;5055334;28;20059;-72
2022/05/01 05:20:11;;;;;;;4.88;2.95;;;6.20;99.90;;;;;;5055575;28;20033;-72
2022/05/01 05:22:37;;;;;;;4.60;2.83;;;6.00;99.90;;;;;;5055258;28;20403;-72
2022/05/01 05:25:04;;;;;;;8.82;3.88;;;6.00;99.90;;;;;;5055207;28;20077;-72
2022/05/01 05:27:30;;;;;;;5.43;3.10;;;6.00;99.90;;;;;;5055193;28;20064;-73
2022/05/01 05:29:56;;;;;;;6.78;3.17;;;6.10;99.90;;;;;;5038460;28;20045;-72
2022/05/01 05:32:23;;;;;;;9.13;2.95;;;6.20;99.90;;;;;;5055049;28;20041;-72
2022/05/01 05:34:50;;;;;;;4.50;2.85;;;6.10;99.90;;;;;;5038549;28;20408;-72
2022/05/01 05:37:17;;;;;;;8.13;3.15;;;6.50;99.90;;;;;;5038362;28;20140;-72
2022/05/01 05:39:43;;;;;;;3.92;2.45;;;6.40;99.90;;;;;;5054938;28;20120;-72
2022/05/01 05:42:09;;;;;;;6.45;3.65;;;6.60;99.90;;;;;;5038245;28;20098;-72
2022/05/01 05:44:35;;;;;;;5.63;3.22;;;7.30;99.90;;;;;;5054886;28;20045;-72
2022/05/01 05:47:01;;;;;;;7.82;3.45;;;7.00;99.90;;;;;;5054757;28;20044;-72
2022/05/01 05:49:27;;;;;;;3.97;2.35;;;7.10;99.90;;;;;;5055036;28;20051;-73
2022/05/01 05:51:53;;;;;;;8.43;2.70;;;7.40;99.90;;;;;;5054654;28;20130;-72
2022/05/01 05:54:19;;;;;;;4.07;2.58;;;7.50;99.90;;;;;;5038244;28;20519;-72
2022/05/01 05:56:44;;;;;;;5.47;2.83;;;7.80;99.90;;;;;;5037951;28;20037;-72
2022/05/01 05:59:11;;;;;;;4.38;2.08;;;8.30;99.90;;;;;;5054543;28;20049;-73
2022/05/01 06:01:37;;;;;;;3.75;2.40;;;8.00;99.90;;;;;;5054501;28;20077;-74
2022/05/01 06:04:04;;;;;;;3.65;2.80;;;7.80;99.90;;;;;;5021444;28;20040;-72
2022/05/01 06:06:30;;;;;;;5.90;2.55;;;7.90;99.90;;;;;;5038112;28;20041;-72
2022/05/01 06:08:55;;;;;;;8.15;2.65;;;8.10;99.90;;;;;;5037928;28;20095;-73
2022/05/01 06:11:21;;;;;;;5.53;2.50;;;8.60;99.90;;;;;;5054390;28;20451;-74
2022/05/01 06:13:47;;;;;;;5.35;2.72;;;8.30;99.90;;;;;;5054238;28;20052;-74
2022/05/01 06:16:13;;;;;;;5.93;2.72;;;8.30;99.90;;;;;;5054100;28;20081;-73
2022/05/01 06:18:38;;;;;;;4.30;2.70;;;8.70;99.90;;;;;;5053976;28;20261;-74
2022/05/01 06:21:04;;;;;;;5.75;2.38;;;8.90;99.90;;;;;;5037687;28;20510;-74
2022/05/01 06:23:30;;;;;;;5.00;2.38;;;8.70;99.90;;;;;;5054203;28;20413;-73
2022/05/01 06:25:56;;;;;;;4.80;2.35;;;;;;;;;;5054050;28;20519;-73
2022/05/01 06:28:22;;;;;;;5.43;3.42;;;9.10;99.90;;;;;;5037894;28;20044;-74
2022/05/01 06:30:50;;;;;;;3.88;2.35;;;9.50;99.90;;;;;;5020838;28;20037;-72
2022/05/01 06:33:20;;;;;;;6.35;1.90;;;9.40;99.90;;;;;;5053949;28;20052;-72
2022/05/01 06:35:50;;;;;;;7.35;2.38;;;;;;;;;;5053856;28;20076;-72
2022/05/01 06:38:16;;;;;;;3.93;2.00;;;;;;;;;;5053865;28;20037;-72
2022/05/01 06:40:46;;;;;;;4.28;2.08;;;;;;;;;;5053727;28;20148;-72
2022/05/01 06:43:13;;;;;;;3.90;2.37;;;9.70;99.90;;;;;;5054059;28;20500;-72
2022/05/01 06:45:40;;;;;;;2.35;1.52;;;;;;;;;;5053906;28;20060;-72
2022/05/01 06:48:07;;;;;;;3.95;2.60;;;;;;;;;;5053706;28;20045;-72
2022/05/01 06:50:33;;;;;;;4.88;1.98;;;;;;;;;;5037218;28;20040;-73
2022/05/01 06:52:59;;;;;;;2.80;1.55;;;9.90;99.90;;;;;;5053866;28;20041;-73
2022/05/01 06:55:25;;;;;;;4.35;2.00;;;10.00;99.90;;;;;;5036867;28;20048;-72
2022/05/01 06:57:55;;;;;;;4.28;2.55;;;10.10;99.90;;;;;;5036965;28;20033;-72
2022/05/01 07:00:22;;;;;;;4.18;2.30;;;10.20;99.90;;;;;;5037084;28;20511;-73
2022/05/01 07:02:52;;;;;;;6.30;2.55;;;10.20;99.90;;;;;;5053413;28;20041;-73
2022/05/01 07:05:19;;;;;;;4.82;2.17;;;10.40;99.90;;;;;;5053399;28;20037;-73
2022/05/01 07:07:46;;;;;;;4.28;2.40;;;10.40;99.90;;;;;;5036701;28;20474;-73
2022/05/01 07:10:12;;;;;;;4.22;2.05;;;10.60;99.90;;;;;;5053271;28;20102;-73
2022/05/01 07:12:38;;;;;;;3.08;1.63;;;10.80;99.90;;;;;;5036653;28;20037;-72
2022/05/01 07:15:04;;;;;;;10.05;2.38;;;10.70;99.90;;;;;;5036330;28;20064;-73
2022/05/01 07:17:30;;;;;;;3.20;2.05;;;10.70;99.90;;;;;;5036509;28;20182;-73
2022/05/01 07:19:56;;;;;;;3.80;1.98;;;10.80;99.90;;;;;;5053144;28;20504;-73
2022/05/01 07:22:22;;;;;;;3.85;2.08;;;11.00;99.90;;;;;;5052924;28;20404;-73
2022/05/01 07:24:47;;;;;;;2.97;2.13;;;11.30;99.90;;;;;;5052973;28;20519;-73
2022/05/01 07:27:13;;;;;;;3.97;2.38;;;11.20;99.90;;;;;;5019718;28;20449;-74
2022/05/01 07:29:39;;;;;;;3.67;2.13;;;11.40;99.90;;;;;;5052892;28;20459;-74
2022/05/01 07:32:05;;;;;;;6.55;1.95;;;11.30;99.90;;;;;;5019352;28;20415;-73
2022/05/01 07:34:30;;;;;;;4.78;2.13;;;11.40;99.90;;;;;;5019683;28;20052;-73
2022/05/01 07:36:56;;;;;;;3.90;2.13;;;11.60;99.90;;;;;;5052708;28;20492;-74
2022/05/01 07:39:22;;;;;;;3.33;2.13;;;11.40;99.90;;;;;;5019608;28;20045;-71
2022/05/01 07:41:48;;;;;;;6.32;2.65;;;11.40;99.90;;;;;;5052524;28;20043;-73
2022/05/01 07:44:14;;;;;;;4.60;2.30;;;11.60;99.90;;;;;;5052894;28;20045;-74
2022/05/01 07:46:40;;;;;;;4.07;1.60;;;11.60;99.90;;;;;;5052778;28;20037;-72
2022/05/01 07:49:07;;;;;;;2.75;1.63;;;11.60;99.90;;;;;;5052450;28;20041;-73
2022/05/01 07:51:33;;;;;;;3.63;1.88;;;11.70;99.90;;;;;;5052678;28;20052;-72
2022/05/01 07:53:59;;;;;;;3.50;1.88;;;11.90;99.90;;;;;;5052309;28;20053;-72
2022/05/01 07:56:26;;;;;;;2.95;1.75;;;11.90;99.90;;;;;;5035798;28;20033;-72
2022/05/01 07:58:52;;;;;;;7.60;2.45;;;11.90;99.90;;;;;;5019663;28;20424;-72
2022/05/01 08:01:18;;;;;;;2.70;1.70;;;11.80;99.90;;;;;;5035657;28;20083;-72
2022/05/01 08:06:29;;;;;;;2.92;1.48;;;11.40;99.90;;;;;;5052160;28;20060;-72
2022/05/01 08:08:55;;;;;;;2.63;1.80;;;11.50;99.90;;;;;;5035555;28;20045;-72
2022/05/01 08:11:21;;;;;;;4.13;2.05;;;12.20;99.90;;;;;;5052041;28;20047;-73
2022/05/01 08:13:47;;;;;;;6.10;1.90;;;11.80;99.90;;;;;;5052160;28;20033;-72
2022/05/01 08:16:13;;;;;;;2.63;1.13;;;12.10;99.90;;;;;;5035378;28;20061;-73
2022/05/01 08:21:23;;;;;;;2.92;1.45;;;12.60;99.90;;;;;;5037819;28;20083;-73
2022/05/01 08:23:49;;;;;;;7.32;1.88;;;12.80;99.90;;;;;;5051786;28;20072;-72
2022/05/01 08:26:17;;;;;;;2.90;1.50;;;12.80;99.90;;;;;;5035479;28;20048;-72
2022/05/01 08:28:44;;;;;;;1.67;1.40;;;12.90;99.90;;;;;;5035516;28;20049;-72
2022/05/01 08:31:10;;;;;;;2.85;1.48;;;13.00;99.90;;;;;;5051759;28;20045;-72
2022/05/01 08:33:39;;;;;;;4.47;1.65;;;13.20;99.90;;;;;;5035305;28;20081;-72
2022/05/01 08:36:06;;;;;;;7.68;1.48;;;13.10;99.90;;;;;;5035393;28;20076;-73
2022/05/01 08:38:32;;;;;;;4.28;1.90;;;13.00;99.90;;;;;;5051916;28;20044;-73
2022/05/01 08:40:58;;;;;;;2.72;1.55;;;13.20;99.90;;;;;;5051995;28;20128;-73
2022/05/01 08:43:25;;;;;;;3.13;1.23;;;13.20;99.90;;;;;;5051554;28;20072;-73
2022/05/01 08:46:00;;;;;;;2.88;1.58;;;13.20;99.90;;;;;;5034919;28;20036;-72
2022/05/01 08:48:39;;;;;;;3.45;1.52;;;13.10;99.90;;;;;;5051611;28;20048;-73
2022/05/01 08:51:05;;;;;;;2.60;1.48;;;13.00;99.90;;;;;;5051812;28;20485;-73
2022/05/01 08:53:32;;;;;;;3.63;1.70;;;12.90;99.90;;;;;;5034971;28;20044;-73
2022/05/01 08:56:01;;;;;;;2.17;1.40;;;12.80;99.90;;;;;;5051508;28;20117;-73
2022/05/01 08:58:29;;;;;;;2.97;1.25;;;12.70;99.90;;;;;;5051349;28;20072;-73
2022/05/01 09:00:55;;;;;;;1.83;1.00;;;12.60;99.90;;;;;;5035051;28;20041;-72
2022/05/01 09:03:21;;;;;;;2.42;1.42;;;12.80;99.90;;;;;;5035076;28;20041;-73
2022/05/01 09:05:47;;;;;;;2.78;1.60;;;12.90;99.90;;;;;;5034774;28;20412;-72
2022/05/01 09:08:13;;;;;;;4.05;1.70;;;13.00;99.90;;;;;;5051806;28;20044;-71
2022/05/01 09:10:42;;;;;;;3.15;2.00;;;13.10;99.90;;;;;;5051323;28;20048;-73
2022/05/01 09:13:08;;;;;;;3.45;1.88;;;13.20;99.90;;;;;;5051568;28;20123;-73
2022/05/01 09:15:46;;;;;;;2.03;1.20;;;13.30;99.90;;;;;;5050907;28;20131;-73
2022/05/01 09:18:14;;;;;;;3.03;1.73;;;13.30;99.90;;;;;;5034895;28;20134;-73
2022/05/01 09:21:08;;;;;;;3.90;1.70;;;13.50;99.90;;;;;;5034861;28;20369;-73
2022/05/01 09:23:38;;;;;;;3.15;1.63;;;13.50;99.90;;;;;;5051151;28;20040;-73
2022/05/01 09:26:11;;;;;;;2.60;1.37;;;13.70;99.90;;;;;;5034522;28;20040;-73
2022/05/01 09:28:46;;;;;;;1.55;1.25;;;13.80;99.90;;;;;;5051220;28;20284;-73
2022/05/01 09:31:11;;;;;;;3.58;1.60;;;13.80;99.90;;;;;;5051032;28;20037;-73
2022/05/01 09:33:37;;;;;;;1.92;1.40;;;13.60;99.90;;;;;;5051005;28;20139;-74
2022/05/01 09:36:03;;;;;;;2.03;1.20;;;13.50;99.90;;;;;;5034810;28;20041;-74
2022/05/01 09:38:29;;;;;;;2.92;1.58;;;13.40;99.90;;;;;;5034523;28;20201;-73
2022/05/01 09:41:00;;;;;;;3.42;1.20;;;13.40;99.90;;;;;;5034455;28;20037;-73
2022/05/01 09:43:46;;;;;;;5.00;1.63;;;13.30;99.90;;;;;;5051246;28;20396;-74
2022/05/01 09:46:19;;;;;;;2.35;1.40;;;13.30;99.90;;;;;;5051036;28;20063;-73
2022/05/01 09:49:08;;;;;;;2.33;1.65;;;13.30;99.90;;;;;;5050986;28;20458;-74
2022/05/01 09:51:43;;;;;;;2.63;1.23;;;13.50;99.90;;;;;;5050918;28;20052;-73
2022/05/01 09:54:09;;;;;;;3.67;1.10;;;13.80;99.90;;;;;;5051627;28;20075;-74
2022/05/01 09:56:46;;;;;;;1.80;1.10;;;13.70;99.90;;;;;;5038039;28;20048;-73
2022/05/01 09:59:12;;;;;;;1.83;1.30;;;13.60;99.90;;;;;;5037914;28;20103;-73
2022/05/01 10:01:38;;;;;;;2.13;1.40;;;13.40;99.90;;;;;;5054901;28;20488;-73
2022/05/01 10:04:04;;;;;;;3.22;1.58;;;13.40;99.90;;;;;;5037956;28;20130;-74
2022/05/01 10:06:31;;;;;;;2.20;1.42;;;13.40;99.90;;;;;;5054640;28;20183;-73
2022/05/01 10:08:57;;;;;;;3.58;1.60;;;13.30;99.90;;;;;;5054512;28;20041;-73
2022/05/01 10:11:25;;;;;;;3.05;1.67;;;13.30;99.90;;;;;;5054416;28;20123;-73
2022/05/01 10:13:51;;;;;;;2.25;1.60;;;13.60;99.90;;;;;;5054551;28;20048;-73
2022/05/01 10:16:17;;;;;;;1.58;1.02;;;13.40;99.90;;;;;;5054350;28;20057;-72
2022/05/01 10:18:44;;;;;;;2.47;1.67;;;13.40;99.90;;;;;;5037680;28;20043;-73
2022/05/01 10:21:11;;;;;;;2.00;1.10;;;13.30;99.90;;;;;;5037664;28;20040;-73
2022/05/01 10:23:39;;;;;;;2.22;1.23;;;13.40;99.90;;;;;;5054137;28;20068;-74
2022/05/01 10:26:20;;;;;;;2.08;1.20;;;13.50;99.90;;;;;;5054126;28;20044;-73
2022/05/01 10:29:04;;;;;;;1.95;1.23;;;13.40;99.90;;;;;;5037548;28;20041;-73
2022/05/01 10:35:02;;;;;;;1.02;0.88;;;13.80;99.90;;;;;;5053815;28;20132;-73
2022/05/01 10:38:00;;;;;;;2.55;1.52;;;13.90;99.90;;;;;;5053839;28;20037;-73
2022/05/01 10:40:38;;;;;;;2.42;1.40;;;13.80;99.90;;;;;;5037246;28;20040;-74
2022/05/01 10:43:27;;;;;;;1.85;1.20;;;14.00;99.90;;;;;;5053750;28;20045;-73
2022/05/01 10:45:55;;;;;;;1.20;0.93;;;14.10;99.90;;;;;;5054080;28;20442;-74
2022/05/01 10:48:41;;;;;;;1.60;1.17;;;14.20;99.50;;;;;;5037004;28;20049;-73
2022/05/01 10:51:31;;;;;;;2.33;1.00;;;14.00;99.10;;;;;;5021109;28;20052;-73
2022/05/01 10:54:15;;;;;;;2.40;1.13;;;14.10;99.90;;;;;;5053575;28;20045;-73
2022/05/01 10:56:42;;;;;;;1.25;0.98;;;14.30;99.90;;;;;;5053475;28;20408;-74
2022/05/01 10:59:29;;;;;;;4.38;1.05;;;14.30;99.90;;;;;;5053697;28;20385;-74
2022/05/01 11:02:00;;;;;;;3.20;1.30;;;14.50;99.50;;;;;;5053427;28;20040;-74
2022/05/01 11:04:32;;;;;;;2.53;1.25;;;14.40;98.90;;;;;;5053662;28;20041;-74
2022/05/01 11:07:03;;;;;;;2.20;1.00;;;14.40;99.50;;;;;;5035924;28;20408;-74
2022/05/01 11:09:34;;;;;;;4.25;1.20;;;14.40;99.90;;;;;;5036820;28;20037;-74
2022/05/01 11:12:00;;;;;;;;;;;14.40;99.20;;;;;;5053630;28;20057;-74
2022/05/01 11:14:40;;;;;;;1.90;1.13;;;14.30;98.70;;;;;;5053339;28;19927;-74
2022/05/01 11:17:07;;;;;;;1.50;0.98;;;14.20;98.80;;;;;;5036543;28;20049;-74
2022/05/01 11:19:46;;;;;;;1.75;1.50;;;14.20;98.60;;;;;;5036740;28;20041;-73
2022/05/01 11:22:13;;;;;;;3.72;1.30;;;14.10;98.60;;;;;;5053373;28;20119;-74
2022/05/01 11:24:45;;;;;;;2.10;1.05;;;14.00;98.70;;;;;;5036433;28;20162;-74
2022/05/01 11:27:11;;;;;;;1.58;1.00;;;13.90;99.00;;;;;;5053037;28;20101;-73
2022/05/01 11:29:37;;;;;;;1.15;0.90;;;14.10;99.90;;;;;;5036452;28;20123;-73
2022/05/01 11:32:19;;;;;;;1.67;0.77;;;14.20;99.80;;;;;;5052981;28;20059;-73
2022/05/01 11:34:54;;;;;;;2.05;1.27;;;14.40;99.00;;;;;;5052743;28;20622;-73
2022/05/01 11:37:21;;;;;;;2.33;1.45;;;14.50;99.70;;;;;;5053101;28;20511;-74
2022/05/01 11:39:48;;;;;;;1.38;1.00;;;14.60;99.50;;;;;;5053074;28;20039;-74
2022/05/01 11:42:26;;;;;;;1.92;1.15;;;14.70;99.90;;;;;;5036065;28;20037;-74
2022/05/01 11:45:00;;;;;;;1.98;1.20;;;14.90;99.80;;;;;;5052639;28;20098;-74
2022/05/01 11:47:33;;;;;;;2.42;1.33;;;14.80;98.30;;;;;;5035929;28;20045;-74
2022/05/01 11:49:59;;;;;;;2.75;1.30;;;14.80;99.50;;;;;;5052964;28;20041;-73
2022/05/01 11:52:25;;;;;;;1.23;0.88;;;14.80;99.10;;;;;;5052560;28;20048;-74
2022/05/01 11:55:06;;;;;;;2.00;1.27;;;14.80;98.90;;;;;;5052391;28;20037;-74
2022/05/01 12:03:07;;;;;;;2.47;1.20;;;14.90;98.80;;;;;;5038180;28;20048;-72
2022/05/01 12:05:44;;;;;;;2.35;0.88;;;14.60;98.10;;;;;;5035629;28;20171;-73
2022/05/01 12:08:11;;;;;;;1.67;1.13;;;14.40;98.40;;;;;;5035609;28;20080;-72
2022/05/01 12:10:45;;;;;;;3.25;0.80;;;14.30;98.20;;;;;;5052100;28;20051;-73
2022/05/01 12:13:23;;;;;;;1.25;0.77;;;14.20;98.60;;;;;;5052101;28;20049;-72
2022/05/01 12:15:50;;;;;;;2.67;1.30;;;14.20;99.00;;;;;;5051830;28;20099;-73
2022/05/01 12:18:16;;;;;;;3.35;1.13;;;14.20;99.00;;;;;;5051672;28;20048;-72
2022/05/01 12:20:43;;;;;;;1.60;0.90;;;14.20;98.50;;;;;;5035512;28;20048;-73
2022/05/01 12:23:18;;;;;;;2.67;1.17;;;14.30;98.70;;;;;;5035507;28;20183;-72
2022/05/01 12:25:46;;;;;;;1.42;1.08;;;14.30;98.80;;;;;;5035373;28;20145;-73
2022/05/01 12:28:15;;;;;;;2.03;0.93;;;14.40;98.20;;;;;;5052203;28;20511;-73
2022/05/01 12:30:42;;;;;;;2.97;1.15;;;14.30;98.20;;;;;;5051705;28;20045;-73
2022/05/01 12:33:18;;;;;;;1.90;1.10;;;14.40;98.80;;;;;;5051858;28;20102;-73
2022/05/01 12:35:55;;;;;;;2.00;1.45;;;14.40;98.20;;;;;;5051707;28;20052;-73
2022/05/01 12:38:22;;;;;;;1.58;0.98;;;14.50;98.60;;;;;;5035766;28;20045;-73
2022/05/01 12:43:51;;;;;;;1.77;1.10;;;14.50;98.30;;;;;;5051550;28;20047;-73
2022/05/01 12:46:25;;;;;;;1.23;0.80;;;14.60;98.60;;;;;;5051609;28;20175;-73
2022/05/01 12:48:52;;;;;;;2.65;1.38;;;14.60;97.30;;;;;;5051797;28;20386;-73
2022/05/01 12:51:18;;;;;;;1.15;0.90;;;14.60;97.80;;;;;;5051526;28;20040;-74
2022/05/01 12:53:44;;;;;;;1.52;1.02;;;14.50;96.80;;;;;;5034769;28;20106;-74
2022/05/01 12:56:20;;;;;;;1.65;0.95;;;14.30;96.30;;;;;;5051460;28;20083;-74
2022/05/01 12:58:46;;;;;;;1.88;1.00;;;14.10;97.60;;;;;;5034738;28;20045;-74
2022/05/01 13:01:24;;;;;;;2.03;1.17;;;14.10;98.10;;;;;;5034861;28;20145;-74
2022/05/01 13:03:49;;;;;;;1.27;0.95;;;14.30;98.30;;;;;;5051660;28;20036;-74
2022/05/01 13:06:17;;;;;;;0.85;0.60;;;14.30;98.10;;;;;;5051693;28;20051;-74
2022/05/01 13:09:05;;;;;;;1.58;1.05;;;14.40;98.10;;;;;;5034628;28;20086;-74
2022/05/01 13:11:33;;;;;;;3.05;1.30;;;14.10;95.80;;;;;;5034644;28;20080;-74
2022/05/01 13:14:05;;;;;;;2.05;0.98;;;14.30;98.00;;;;;;5051200;28;20045;-74
2022/05/01 13:16:31;;;;;;;1.98;0.82;;;14.00;99.90;;;;;;5034567;28;20136;-74
2022/05/01 13:19:00;;;;;;;4.10;0.80;;;14.00;98.90;;;;;;5034645;28;20154;-74
2022/05/01 13:21:30;;;;;;;1.33;0.70;;;14.00;98.90;;;;;;5035074;28;20042;-74
2022/05/01 13:23:58;;;;;;;;;;;14.10;99.50;;;;;;5051638;28;20535;-74
2022/05/01 13:26:24;;;;;;;2.78;1.30;;;14.10;98.10;;;;;;5051398;28;19917;-74
2022/05/01 13:28:50;;;;;;;1.63;1.10;;;14.10;98.90;;;;;;5052041;28;20137;-74
2022/05/01 13:31:16;;;;;;;1.83;0.90;;;14.20;98.90;;;;;;5039266;28;20416;-73
2022/05/01 13:33:42;;;;;;;1.83;1.13;;;14.40;99.50;;;;;;5022610;28;20044;-74
2022/05/01 13:36:08;;;;;;;1.13;0.90;;;14.40;99.10;;;;;;5056115;28;20037;-74